Time;durP1;ratioP1;P1;durP2;ratioP2;P2;SDS_P1;SDS_P2;PMS_P1;PMS_P2;Temp;Humidity;BMP_temperature;BMP_pressure;BME280_temperature;BME280_humidity;BME280_pressure;Samples;Min_cycle;Max_cycle;Signal;HPM_P1;HPM_P2
2021/06/04 00:02:06;;;;;;;10.40;9.33;;;18.20;99.90;;;;;;5010459;28;20564;-72
2021/06/04 00:04:34;;;;;;;11.60;10.60;;;18.30;99.90;;;;;;5001954;28;20681;-72
2021/06/04 00:07:01;;;;;;;11.53;9.00;;;18.30;99.90;;;;;;5005654;28;20495;-73
2021/06/04 00:09:28;;;;;;;11.77;10.60;;;18.40;99.90;;;;;;5005706;28;20542;-72
2021/06/04 00:11:58;;;;;;;11.07;10.13;;;18.40;99.90;;;;;;5006387;28;20499;-72
2021/06/04 00:14:28;;;;;;;12.13;11.10;;;18.30;99.90;;;;;;5007667;28;20428;-72
2021/06/04 00:16:58;;;;;;;10.53;9.60;;;18.40;99.90;;;;;;5008001;28;20523;-71
2021/06/04 00:19:28;;;;;;;11.27;9.70;;;18.40;99.90;;;;;;5007178;28;20476;-72
2021/06/04 00:21:57;;;;;;;11.37;9.90;;;18.40;99.90;;;;;;5008090;28;20550;-71
2021/06/04 00:24:24;;;;;;;11.00;9.53;;;18.40;99.90;;;;;;5007893;28;20542;-72
2021/06/04 00:26:52;;;;;;;11.40;9.43;;;18.40;99.90;;;;;;5007998;28;20455;-72
2021/06/04 00:29:28;;;;;;;10.63;9.73;;;18.50;99.90;;;;;;5007982;28;20512;-72
2021/06/04 00:31:56;;;;;;;11.63;10.60;;;18.50;99.90;;;;;;5008088;28;20519;-72
2021/06/04 00:34:25;;;;;;;12.87;11.40;;;18.50;99.90;;;;;;5006176;28;20520;-72
2021/06/04 00:36:52;;;;;;;10.70;9.70;;;18.40;99.90;;;;;;5004789;28;20703;-71
2021/06/04 00:39:27;;;;;;;9.83;9.03;;;18.20;99.90;;;;;;5007436;28;20483;-72
2021/06/04 00:41:56;;;;;;;10.03;9.13;;;18.20;99.90;;;;;;5014550;28;20433;-72
2021/06/04 00:44:24;;;;;;;14.77;13.37;;;18.20;99.90;;;;;;5007694;28;20507;-70
2021/06/04 00:46:51;;;;;;;13.00;11.80;;;18.10;99.90;;;;;;5001151;28;20474;-72
2021/06/04 00:49:19;;;;;;;15.70;14.20;;;18.00;99.90;;;;;;5006297;28;20516;-72
2021/06/04 00:51:50;;;;;;;13.17;11.40;;;17.90;99.90;;;;;;4998257;28;20702;-72
2021/06/04 00:54:21;;;;;;;11.97;11.00;;;17.80;99.90;;;;;;5007095;28;20440;-70
2021/06/04 00:56:48;;;;;;;13.70;12.40;;;17.80;99.90;;;;;;5006945;28;20532;-72
2021/06/04 00:59:24;;;;;;;14.73;13.15;;;17.80;99.90;;;;;;5007116;28;20431;-72
2021/06/04 01:01:51;;;;;;;11.73;10.07;;;17.80;99.90;;;;;;5007548;28;20375;-72
2021/06/04 01:04:26;;;;;;;13.77;12.60;;;17.80;99.90;;;;;;5007864;28;20446;-73
2021/06/04 01:07:00;;;;;;;14.40;13.23;;;17.70;99.90;;;;;;5013601;28;20466;-72
2021/06/04 01:10:12;;;;;;;14.73;13.43;;;17.60;99.90;;;;;;4994561;28;20509;-72
2021/06/04 01:12:56;;;;;;;13.93;12.70;;;17.60;99.90;;;;;;5008980;28;20456;-72
2021/06/04 01:18:19;;;;;;;15.83;14.27;;;17.60;99.90;;;;;;5006492;28;20495;-72
2021/06/04 01:20:51;;;;;;;13.73;12.53;;;17.50;99.90;;;;;;5002603;28;20566;-70
2021/06/04 01:23:53;;;;;;;12.17;11.00;;;17.50;99.90;;;;;;5008074;28;21544;-70
2021/06/04 01:26:27;;;;;;;18.25;16.45;;;17.60;99.90;;;;;;5000489;28;20687;-70
2021/06/04 01:28:57;;;;;;;16.60;13.35;;;17.60;99.90;;;;;;5006353;28;20242;-70
2021/06/04 01:31:27;;;;;;;13.97;12.57;;;17.60;99.90;;;;;;5007179;28;20193;-71
2021/06/04 01:33:59;;;;;;;13.10;11.90;;;17.50;99.90;;;;;;5006318;28;20507;-72
2021/06/04 01:36:29;;;;;;;12.25;11.18;;;17.50;99.90;;;;;;5005511;28;20706;-73
2021/06/04 01:38:58;;;;;;;12.80;11.70;;;17.50;99.90;;;;;;5006295;28;20349;-71
2021/06/04 01:41:29;;;;;;;12.00;10.77;;;17.60;99.90;;;;;;5000291;28;20433;-72
2021/06/04 01:43:59;;;;;;;13.88;12.50;;;17.60;99.90;;;;;;5003159;28;20671;-72
2021/06/04 01:46:29;;;;;;;13.37;12.17;;;17.50;99.90;;;;;;5006730;28;20217;-70
2021/06/04 01:49:02;;;;;;;14.10;12.90;;;17.50;99.90;;;;;;5006325;28;20482;-71
2021/06/04 01:51:34;;;;;;;14.70;13.37;;;17.50;99.90;;;;;;4998893;28;20463;-73
2021/06/04 01:54:09;;;;;;;14.00;12.90;;;17.40;99.90;;;;;;5003865;28;20432;-71
2021/06/04 01:56:41;;;;;;;18.05;16.38;;;17.40;99.90;;;;;;5005020;28;20534;-70
2021/06/04 01:59:12;;;;;;;15.05;13.75;;;17.20;99.90;;;;;;5005697;28;20204;-70
2021/06/04 02:01:42;;;;;;;15.10;13.80;;;17.20;99.90;;;;;;5004475;28;20451;-70
2021/06/04 02:04:12;;;;;;;16.67;15.27;;;17.20;99.90;;;;;;5006310;28;20720;-71
2021/06/04 02:06:39;;;;;;;15.50;14.10;;;17.20;99.90;;;;;;5005534;28;20737;-71
2021/06/04 02:09:10;;;;;;;14.90;13.60;;;17.10;99.90;;;;;;5007262;28;20672;-70
2021/06/04 02:11:39;;;;;;;15.32;14.02;;;17.10;99.90;;;;;;5004599;28;20486;-71
2021/06/04 02:14:10;;;;;;;15.10;13.90;;;17.10;99.90;;;;;;5006044;28;20263;-70
2021/06/04 02:16:54;;;;;;;16.30;14.80;;;17.10;99.90;;;;;;5005452;28;20291;-70
2021/06/04 02:19:29;;;;;;;16.15;14.65;;;17.00;99.90;;;;;;5012835;28;20480;-71
2021/06/04 02:24:48;;;;;;;13.67;12.40;;;17.00;99.90;;;;;;5009969;28;20197;-72
2021/06/04 02:27:20;;;;;;;13.67;12.43;;;16.90;99.90;;;;;;5004361;28;20485;-69
2021/06/04 02:29:52;;;;;;;15.35;13.55;;;17.00;99.90;;;;;;5000387;28;20740;-69
2021/06/04 02:32:23;;;;;;;15.35;13.85;;;17.00;99.90;;;;;;5006050;28;20199;-71
2021/06/04 02:34:56;;;;;;;17.35;15.70;;;17.00;99.90;;;;;;5001490;28;20389;-71
2021/06/04 02:37:27;;;;;;;15.80;14.40;;;16.90;99.90;;;;;;5004763;28;20278;-71
2021/06/04 02:39:59;;;;;;;17.95;16.15;;;16.90;99.90;;;;;;5011027;28;20448;-71
2021/06/04 02:42:30;;;;;;;15.98;14.57;;;16.90;99.90;;;;;;5004362;28;20196;-70
2021/06/04 02:45:06;;;;;;;15.80;14.30;;;16.80;99.90;;;;;;5003551;28;20255;-71
2021/06/04 02:47:36;;;;;;;18.52;16.90;;;16.90;99.90;;;;;;4998560;28;20238;-70
2021/06/04 02:50:07;;;;;;;19.20;17.45;;;16.80;99.90;;;;;;5002146;28;20328;-70
2021/06/04 02:52:38;;;;;;;20.08;18.33;;;16.80;99.90;;;;;;5000758;28;20200;-71
2021/06/04 02:55:11;;;;;;;21.10;19.20;;;16.70;99.90;;;;;;5003589;28;20387;-70
2021/06/04 02:57:40;;;;;;;19.70;17.90;;;16.70;99.90;;;;;;5005292;28;20321;-71
2021/06/04 03:00:11;;;;;;;19.45;17.85;;;16.60;99.90;;;;;;4998423;28;20192;-70
2021/06/04 03:02:39;;;;;;;21.40;18.38;;;16.60;99.90;;;;;;5005557;28;20355;-70
2021/06/04 03:05:10;;;;;;;16.48;15.00;;;16.60;99.90;;;;;;5005387;28;20199;-70
2021/06/04 03:07:40;;;;;;;16.30;14.90;;;16.60;99.90;;;;;;4998868;28;20218;-71
2021/06/04 03:10:11;;;;;;;21.23;19.40;;;16.70;99.90;;;;;;5004243;28;20250;-72
2021/06/04 03:12:44;;;;;;;20.52;18.63;;;16.70;99.90;;;;;;4999118;28;20196;-72
2021/06/04 03:15:18;;;;;;;17.30;15.80;;;16.70;99.90;;;;;;5003215;28;20265;-70
2021/06/04 03:17:45;;;;;;;19.50;17.70;;;16.80;99.90;;;;;;5004657;28;20229;-70
2021/06/04 03:20:16;;;;;;;16.63;15.15;;;16.80;99.90;;;;;;5004818;28;20443;-70
2021/06/04 03:22:44;;;;;;;17.57;15.97;;;16.80;99.90;;;;;;4999664;28;20205;-69
2021/06/04 03:25:17;;;;;;;19.50;17.70;;;16.90;99.90;;;;;;5003542;28;20564;-70
2021/06/04 03:27:46;;;;;;;19.80;18.08;;;16.90;99.90;;;;;;4987114;28;20618;-70
2021/06/04 03:30:15;;;;;;;20.98;18.98;;;16.90;99.90;;;;;;4999390;28;20238;-71
2021/06/04 03:32:41;;;;;;;20.45;18.48;;;16.80;99.90;;;;;;5008816;28;20204;-71
2021/06/04 03:35:15;;;;;;;20.58;18.58;;;16.90;99.90;;;;;;5000887;28;20259;-71
2021/06/04 03:37:43;;;;;;;19.73;17.92;;;17.00;99.90;;;;;;5008901;28;20294;-72
2021/06/04 03:40:13;;;;;;;19.77;17.55;;;17.10;99.90;;;;;;5007725;28;20219;-70
2021/06/04 03:42:42;;;;;;;21.17;19.35;;;17.10;99.90;;;;;;5007684;28;20196;-71
2021/06/04 03:45:15;;;;;;;23.65;21.45;;;17.10;99.90;;;;;;5006386;28;20398;-71
2021/06/04 03:47:41;;;;;;;19.77;17.75;;;17.10;99.90;;;;;;5006887;28;20274;-71
2021/06/04 03:50:09;;;;;;;20.98;18.45;;;17.10;99.90;;;;;;5005374;28;20246;-72
2021/06/04 03:52:36;;;;;;;21.90;19.55;;;17.20;99.90;;;;;;5008576;28;20196;-70
2021/06/04 03:55:05;;;;;;;19.67;17.73;;;17.20;99.90;;;;;;5008740;28;20383;-71
2021/06/04 03:57:33;;;;;;;20.58;18.83;;;17.30;99.90;;;;;;5008071;28;20692;-71
2021/06/04 04:00:01;;;;;;;23.17;18.00;;;17.30;99.90;;;;;;5008492;28;20253;-70
2021/06/04 04:02:29;;;;;;;20.88;18.98;;;17.30;99.90;;;;;;5013847;28;20224;-71
2021/06/04 04:04:58;;;;;;;22.15;20.05;;;17.40;99.90;;;;;;5010816;28;20277;-72
2021/06/04 04:07:26;;;;;;;19.63;17.97;;;17.50;99.90;;;;;;5006442;28;20239;-72
2021/06/04 04:09:52;;;;;;;15.67;14.27;;;17.80;99.90;;;;;;5004836;28;20547;-71
2021/06/04 04:12:19;;;;;;;16.60;14.93;;;18.60;99.90;;;;;;5007888;28;20718;-71
2021/06/04 04:14:46;;;;;;;15.80;14.30;;;19.30;99.90;;;;;;5008542;28;20428;-69
2021/06/04 04:17:13;;;;;;;15.87;14.43;;;20.00;99.90;;;;;;5007369;28;20475;-71
2021/06/04 04:19:41;;;;;;;16.40;14.90;;;20.70;99.90;;;;;;5013205;28;20550;-71
2021/06/04 04:22:08;;;;;;;15.53;14.23;;;21.30;99.90;;;;;;5009694;28;20517;-71
2021/06/04 04:24:39;;;;;;;11.37;10.37;;;21.70;99.90;;;;;;5008083;28;20522;-71
2021/06/04 04:27:07;;;;;;;12.67;11.67;;;22.20;99.90;;;;;;5007677;28;20487;-71
2021/06/04 04:29:34;;;;;;;14.07;12.47;;;23.10;99.90;;;;;;5008062;28;20556;-71
2021/06/04 04:32:06;;;;;;;11.90;10.90;;;23.60;99.90;;;;;;5001225;28;20837;-71
2021/06/04 04:34:33;;;;;;;14.67;13.47;;;24.20;99.90;;;;;;4995065;28;20449;-69
2021/06/04 04:37:04;;;;;;;12.37;11.37;;;24.60;99.90;;;;;;4995051;28;20453;-72
2021/06/04 04:39:40;;;;;;;13.70;12.40;;;24.80;99.90;;;;;;4999492;28;20436;-71
2021/06/04 04:42:09;;;;;;;11.70;10.67;;;25.00;99.90;;;;;;4998038;28;20441;-71
2021/06/04 04:44:44;;;;;;;10.60;9.70;;;25.40;99.90;;;;;;5002231;28;20459;-71
2021/06/04 04:47:13;;;;;;;12.40;11.47;;;25.60;99.90;;;;;;5009690;28;20558;-72
2021/06/04 04:49:40;;;;;;;12.40;11.30;;;25.60;99.90;;;;;;5003439;28;20481;-71
2021/06/04 04:52:11;;;;;;;12.93;11.93;;;25.50;99.90;;;;;;5004928;28;20527;-71
2021/06/04 04:54:40;;;;;;;12.37;11.37;;;25.40;99.90;;;;;;5000241;28;20448;-71
2021/06/04 04:57:07;;;;;;;13.00;11.90;;;25.90;99.90;;;;;;5006121;28;20498;-71
2021/06/04 04:59:35;;;;;;;12.60;11.43;;;26.10;99.90;;;;;;5007319;28;20429;-72
2021/06/04 05:02:01;;;;;;;12.23;11.23;;;26.70;99.70;;;;;;5007177;28;20717;-71
2021/06/04 05:04:28;;;;;;;12.17;11.10;;;26.70;99.30;;;;;;5007535;28;20448;-71
2021/06/04 05:06:55;;;;;;;13.40;12.30;;;26.80;98.50;;;;;;5007096;28;20453;-70
2021/06/04 05:09:23;;;;;;;13.13;12.03;;;26.50;98.70;;;;;;5006869;28;20507;-71
2021/06/04 05:11:50;;;;;;;12.37;10.80;;;26.20;98.90;;;;;;5003967;28;20516;-71
2021/06/04 05:14:18;;;;;;;14.90;13.50;;;25.70;99.90;;;;;;5006535;28;20475;-71
2021/06/04 05:16:45;;;;;;;11.37;10.27;;;25.10;99.90;;;;;;5002315;28;20573;-70
2021/06/04 05:19:12;;;;;;;14.10;12.77;;;25.60;99.90;;;;;;4998222;28;20528;-70
2021/06/04 05:21:38;;;;;;;11.70;10.60;;;25.90;99.90;;;;;;4998283;28;20476;-71
2021/06/04 05:24:07;;;;;;;11.17;10.10;;;26.40;99.90;;;;;;4999615;28;20425;-69
2021/06/04 05:26:35;;;;;;;9.30;8.50;;;27.10;98.60;;;;;;5002655;28;20473;-71
2021/06/04 05:29:03;;;;;;;12.07;11.07;;;27.80;96.80;;;;;;5002888;28;20440;-72
2021/06/04 05:31:30;;;;;;;11.43;10.47;;;28.10;95.50;;;;;;5004078;28;20505;-72
2021/06/04 05:33:57;;;;;;;12.13;10.93;;;28.50;94.50;;;;;;5003493;28;20439;-72
2021/06/04 05:36:31;;;;;;;11.67;10.67;;;28.90;93.50;;;;;;5004985;28;20467;-72
2021/06/04 05:39:00;;;;;;;11.30;10.30;;;29.10;93.00;;;;;;5001958;28;20455;-72
2021/06/04 05:41:27;;;;;;;10.97;9.90;;;29.30;92.60;;;;;;5005255;28;20444;-72
2021/06/04 05:43:55;;;;;;;8.70;7.90;;;29.80;91.40;;;;;;5001948;28;20429;-74
2021/06/04 05:46:22;;;;;;;11.10;10.10;;;30.00;90.70;;;;;;5003650;28;20467;-73
2021/06/04 05:48:49;;;;;;;8.93;7.97;;;30.20;90.50;;;;;;5005713;28;20556;-73
2021/06/04 05:51:21;;;;;;;11.50;10.50;;;30.80;88.60;;;;;;5005314;28;20441;-73
2021/06/04 05:53:49;;;;;;;12.10;11.20;;;30.90;87.70;;;;;;5000487;28;20434;-73
2021/06/04 05:56:18;;;;;;;15.30;10.17;;;30.30;86.80;;;;;;4999216;28;20503;-73
2021/06/04 05:58:46;;;;;;;10.53;9.63;;;30.10;88.80;;;;;;5007453;28;20444;-73
2021/06/04 06:01:16;;;;;;;12.20;11.00;;;30.30;88.20;;;;;;5006335;28;20483;-73
2021/06/04 06:03:43;;;;;;;11.87;10.80;;;30.40;88.30;;;;;;5018223;28;20446;-72
2021/06/04 06:06:12;;;;;;;13.60;12.30;;;30.20;88.60;;;;;;5004645;28;20469;-75
2021/06/04 06:08:40;;;;;;;175.17;34.07;;;29.80;89.50;;;;;;5005886;28;20502;-76
2021/06/04 06:11:08;;;;;;;99.00;24.87;;;30.40;89.40;;;;;;5004034;28;20535;-73
2021/06/04 06:13:35;;;;;;;12.40;11.30;;;30.80;87.50;;;;;;5005270;28;20512;-71
2021/06/04 06:16:02;;;;;;;11.00;10.00;;;30.30;86.60;;;;;;5003168;28;20457;-75
2021/06/04 06:18:31;;;;;;;17.70;10.77;;;30.30;87.60;;;;;;5005126;28;20743;-75
2021/06/04 06:20:58;;;;;;;8.93;8.13;;;30.60;88.20;;;;;;5006540;28;20488;-74
2021/06/04 06:23:27;;;;;;;10.40;9.30;;;30.60;88.20;;;;;;5006667;28;20578;-72
2021/06/04 06:25:57;;;;;;;37.63;13.53;;;31.00;86.80;;;;;;5005439;28;20456;-72
2021/06/04 06:28:27;;;;;;;14.70;11.37;;;31.40;86.00;;;;;;5005718;28;20481;-73
2021/06/04 06:30:56;;;;;;;9.43;8.43;;;31.30;83.70;;;;;;5005986;28;20433;-74
2021/06/04 06:33:23;;;;;;;9.30;8.37;;;31.70;84.10;;;;;;5005836;28;20508;-73
2021/06/04 06:35:54;;;;;;;20.30;18.43;;;31.90;83.90;;;;;;5003360;28;20564;-73
2021/06/04 06:38:24;;;;;;;12.70;9.80;;;31.50;83.50;;;;;;5005762;28;20520;-75
2021/06/04 06:40:51;;;;;;;8.33;7.63;;;31.20;84.10;;;;;;5005283;28;20641;-76
2021/06/04 06:43:19;;;;;;;15.27;13.50;;;31.10;84.80;;;;;;5005668;28;20471;-75
2021/06/04 06:45:46;;;;;;;10.63;9.73;;;31.60;83.90;;;;;;5005277;28;20468;-75
2021/06/04 06:48:13;;;;;;;10.77;9.77;;;31.60;84.40;;;;;;4999720;28;20524;-75
2021/06/04 06:50:41;;;;;;;8.73;7.97;;;31.90;84.60;;;;;;5005749;28;20441;-75
2021/06/04 06:53:12;;;;;;;10.13;9.23;;;32.30;83.60;;;;;;5005863;28;20734;-75
2021/06/04 06:55:41;;;;;;;10.47;9.30;;;32.50;81.10;;;;;;4999643;28;20499;-76
2021/06/04 06:58:09;;;;;;;11.00;10.00;;;31.60;82.60;;;;;;5005273;28;20700;-75
2021/06/04 07:00:39;;;;;;;11.30;10.20;;;31.10;83.30;;;;;;5005260;28;20468;-76
2021/06/04 07:03:07;;;;;;;11.00;10.00;;;31.60;82.60;;;;;;5006921;28;20459;-77
2021/06/04 07:05:36;;;;;;;10.27;9.20;;;32.10;82.70;;;;;;5007375;28;20632;-76
2021/06/04 07:08:03;;;;;;;9.80;8.90;;;32.10;81.90;;;;;;4996854;28;20504;-73
2021/06/04 07:10:32;;;;;;;11.00;9.97;;;31.70;81.60;;;;;;5005178;28;20529;-72
2021/06/04 07:13:01;;;;;;;10.93;9.93;;;32.20;83.40;;;;;;5004855;28;20499;-75
2021/06/04 07:15:29;;;;;;;10.67;9.60;;;32.40;81.90;;;;;;5005118;28;20640;-73
2021/06/04 07:17:58;;;;;;;12.63;11.37;;;32.70;80.40;;;;;;5005053;28;20453;-74
2021/06/04 07:20:26;;;;;;;13.10;11.80;;;32.60;81.10;;;;;;5004416;28;20457;-75
2021/06/04 07:22:54;;;;;;;15.63;14.27;;;32.90;79.80;;;;;;5006101;28;20441;-74
2021/06/04 07:25:27;;;;;;;14.17;12.67;;;32.50;79.50;;;;;;5005116;28;20452;-74
2021/06/04 07:27:55;;;;;;;15.70;14.23;;;32.60;80.60;;;;;;5005389;28;20508;-74
2021/06/04 07:30:25;;;;;;;12.70;11.60;;;32.30;80.80;;;;;;5004711;28;20441;-74
2021/06/04 07:32:53;;;;;;;10.03;9.23;;;32.60;82.00;;;;;;5005111;28;20638;-74
2021/06/04 07:35:22;;;;;;;12.60;11.50;;;33.00;80.70;;;;;;5004517;28;20590;-73
2021/06/04 07:37:51;;;;;;;12.30;11.20;;;33.10;79.70;;;;;;5003175;28;20477;-71
2021/06/04 07:40:21;;;;;;;14.80;13.33;;;33.20;79.90;;;;;;5003667;28;20477;-69
2021/06/04 07:42:48;;;;;;;10.33;9.10;;;33.50;79.80;;;;;;5005416;28;20436;-70
2021/06/04 07:45:18;;;;;;;13.23;11.93;;;33.70;78.20;;;;;;5012776;28;20456;-73
2021/06/04 07:47:46;;;;;;;12.77;11.70;;;34.10;78.90;;;;;;5004382;28;20489;-70
2021/06/04 07:50:14;;;;;;;13.43;12.33;;;33.90;78.10;;;;;;5004147;28;20451;-72
2021/06/04 07:52:41;;;;;;;16.07;14.60;;;34.10;78.80;;;;;;5004995;28;20567;-74
2021/06/04 07:55:11;;;;;;;15.63;14.23;;;34.00;78.30;;;;;;5006154;28;20563;-72
2021/06/04 07:57:38;;;;;;;13.10;11.80;;;32.70;77.90;;;;;;5004704;28;20574;-69
2021/06/04 08:00:07;;;;;;;15.40;13.80;;;32.90;80.70;;;;;;5004453;28;20507;-72
2021/06/04 08:02:35;;;;;;;16.53;14.87;;;32.90;80.30;;;;;;5002317;28;20476;-75
2021/06/04 08:05:04;;;;;;;15.73;14.13;;;32.40;80.80;;;;;;4997104;28;20516;-71
2021/06/04 08:07:30;;;;;;;15.70;14.13;;;31.30;84.30;;;;;;4993875;28;20490;-77
2021/06/04 08:09:58;;;;;;;17.03;15.33;;;30.40;87.00;;;;;;5000238;28;20515;-73
2021/06/04 08:12:30;;;;;;;18.57;16.67;;;29.70;90.10;;;;;;5004754;28;20432;-72
2021/06/04 08:15:01;;;;;;;18.53;16.60;;;29.10;91.00;;;;;;5002743;28;20425;-73
2021/06/04 08:17:28;;;;;;;18.83;16.90;;;28.70;92.30;;;;;;4999091;28;20576;-72
2021/06/04 08:19:56;;;;;;;16.60;14.90;;;28.50;93.90;;;;;;5003052;28;20468;-71
2021/06/04 08:22:23;;;;;;;20.50;18.20;;;28.40;93.90;;;;;;5003183;28;20512;-72
2021/06/04 08:24:51;;;;;;;18.70;17.03;;;27.70;95.10;;;;;;5008858;28;20613;-71
2021/06/04 08:27:19;;;;;;;21.80;19.70;;;27.50;96.40;;;;;;5004234;28;20548;-71
2021/06/04 08:29:48;;;;;;;24.90;19.53;;;27.30;97.60;;;;;;5003536;28;20437;-72
2021/06/04 08:32:15;;;;;;;17.20;15.70;;;27.10;97.90;;;;;;5007933;28;20437;-74
2021/06/04 08:34:43;;;;;;;19.40;17.60;;;27.60;97.70;;;;;;5007533;28;20436;-73
2021/06/04 08:37:11;;;;;;;23.03;20.90;;;27.40;96.80;;;;;;5007730;28;20470;-71
2021/06/04 08:39:40;;;;;;;20.57;18.80;;;27.20;97.40;;;;;;5007275;28;20552;-74
2021/06/04 08:42:39;;;;;;;23.47;21.30;;;27.40;98.70;;;;;;5007475;28;20460;-74
2021/06/04 08:45:31;;;;;;;23.30;21.00;;;27.50;98.80;;;;;;4998432;28;20470;-74
2021/06/04 08:48:13;;;;;;;23.00;20.60;;;27.60;98.20;;;;;;5023332;23;20463;-84
2021/06/04 08:50:48;;;;;;;24.60;22.40;;;27.90;97.70;;;;;;5008055;28;20449;-84
2021/06/04 08:53:22;;;;;;;26.73;23.90;;;27.30;98.10;;;;;;5008843;28;20451;-83
2021/06/04 08:55:58;;;;;;;22.17;20.07;;;27.20;98.50;;;;;;5010118;28;20455;-83
2021/06/04 08:58:40;;;;;;;21.87;19.77;;;27.20;99.30;;;;;;5014039;28;20456;-84
2021/06/04 09:01:13;;;;;;;26.60;24.07;;;27.40;99.50;;;;;;5009731;28;20496;-83
2021/06/04 09:03:44;;;;;;;42.97;25.30;;;27.90;97.00;;;;;;5013690;28;21012;-81
2021/06/04 09:06:14;;;;;;;22.50;20.40;;;29.10;95.20;;;;;;5011142;28;20434;-83
2021/06/04 09:08:43;;;;;;;44.20;22.73;;;29.90;92.70;;;;;;5013728;28;20473;-83
2021/06/04 09:11:23;;;;;;;21.10;19.10;;;30.20;93.30;;;;;;5004054;28;20452;-83
2021/06/04 09:13:50;;;;;;;24.77;22.17;;;31.10;91.30;;;;;;5009040;28;20448;-84
2021/06/04 09:16:29;;;;;;;22.47;20.17;;;31.50;90.00;;;;;;5004141;28;20448;-84
2021/06/04 09:18:59;;;;;;;47.17;25.53;;;32.00;89.80;;;;;;5005200;28;20456;-85
2021/06/04 09:21:28;;;;;;;24.70;22.30;;;32.20;88.00;;;;;;5002806;28;20489;-85
2021/06/04 09:24:00;;;;;;;21.70;19.20;;;32.10;87.10;;;;;;5006216;28;20445;-83
2021/06/04 09:26:28;;;;;;;22.60;20.70;;;32.20;87.00;;;;;;4996071;28;20456;-85
2021/06/04 09:29:11;;;;;;;25.10;22.60;;;32.60;87.60;;;;;;5009174;28;20464;-83
2021/06/04 09:31:44;;;;;;;25.30;23.10;;;31.40;88.00;;;;;;5010226;28;20474;-84
2021/06/04 09:34:18;;;;;;;21.60;19.60;;;30.70;90.30;;;;;;5008260;28;20447;-82
2021/06/04 09:36:48;;;;;;;21.23;19.03;;;30.70;91.00;;;;;;5009396;28;20436;-83
2021/06/04 09:39:24;;;;;;;25.37;22.87;;;30.70;91.20;;;;;;5008725;28;20515;-85
2021/06/04 09:41:53;;;;;;;22.37;20.37;;;29.80;91.70;;;;;;5007245;28;20464;-83
2021/06/04 09:44:28;;;;;;;21.83;20.10;;;30.00;92.40;;;;;;5006409;28;20445;-85
2021/06/04 09:47:05;;;;;;;24.17;22.27;;;30.00;92.50;;;;;;5001675;28;20519;-84
2021/06/04 09:49:46;;;;;;;26.80;21.47;;;29.70;92.30;;;;;;4997624;28;20483;-83
2021/06/04 09:52:29;;;;;;;23.93;21.83;;;29.30;93.50;;;;;;5007089;28;20430;-82
2021/06/04 09:55:10;;;;;;;26.57;23.90;;;28.60;94.60;;;;;;5014704;28;20447;-83
2021/06/04 09:57:38;;;;;;;27.33;24.87;;;28.10;96.00;;;;;;5016908;28;20505;-82
2021/06/04 10:00:18;;;;;;;25.47;23.23;;;27.60;97.20;;;;;;5007855;28;20481;-84
2021/06/04 10:02:45;;;;;;;28.37;25.53;;;27.20;98.50;;;;;;5007753;28;20444;-84
2021/06/04 10:05:16;;;;;;;26.10;23.73;;;27.00;99.20;;;;;;5003656;28;20445;-83
2021/06/04 10:07:45;;;;;;;29.67;26.73;;;27.00;99.30;;;;;;5003428;28;20468;-85
2021/06/04 10:10:24;;;;;;;35.50;27.80;;;27.00;99.70;;;;;;5002772;28;20808;-82
2021/06/04 10:12:57;;;;;;;27.27;24.57;;;26.90;99.90;;;;;;4997410;28;20451;-85
2021/06/04 10:18:36;;;;;;;28.70;26.10;;;27.10;99.90;;;;;;5004295;28;20449;-84
2021/06/04 10:21:22;;;;;;;29.30;26.30;;;27.90;98.50;;;;;;5004456;28;20746;-84
2021/06/04 10:23:53;;;;;;;29.00;26.30;;;28.80;97.00;;;;;;5012391;28;20453;-84
2021/06/04 10:26:25;;;;;;;27.57;25.03;;;29.20;95.30;;;;;;5005275;28;20460;-82
2021/06/04 10:28:54;;;;;;;28.13;25.40;;;29.80;94.70;;;;;;5007457;28;20508;-84
2021/06/04 10:38:43;;;;;;;25.93;23.63;;;29.70;94.30;;;;;;4943245;23;20500;-75
2021/06/04 10:41:13;;;;;;;36.33;22.63;;;29.70;93.80;;;;;;4976419;28;20470;-73
2021/06/04 10:44:01;;;;;;;24.30;22.00;;;29.20;94.40;;;;;;4980592;28;20529;-72
2021/06/04 10:46:36;;;;;;;22.60;20.60;;;28.60;94.80;;;;;;4970489;28;20466;-72
2021/06/04 10:49:18;;;;;;;23.80;21.70;;;28.60;95.90;;;;;;4948311;29;20589;-72
2021/06/04 10:51:55;;;;;;;24.40;22.10;;;28.50;95.50;;;;;;4954866;28;20438;-72
2021/06/04 10:54:30;;;;;;;25.00;22.63;;;28.60;95.70;;;;;;4937007;28;20455;-73
2021/06/04 10:57:01;;;;;;;19.77;17.77;;;28.50;95.40;;;;;;4949915;28;20473;-72
2021/06/04 10:59:43;;;;;;;22.93;20.93;;;28.70;95.20;;;;;;4952804;29;20456;-73
2021/06/04 11:02:19;;;;;;;24.87;22.77;;;29.00;95.40;;;;;;4935153;29;20485;-73
2021/06/04 11:04:56;;;;;;;23.10;21.00;;;29.10;95.00;;;;;;4951767;28;20521;-73
2021/06/04 11:07:30;;;;;;;23.57;21.57;;;29.40;94.40;;;;;;4952161;28;20485;-72
2021/06/04 11:10:06;;;;;;;23.63;21.43;;;29.30;93.90;;;;;;4951035;29;20449;-72
2021/06/04 11:13:00;;;;;;;28.63;26.17;;;29.10;94.80;;;;;;4956371;29;21054;-72
2021/06/04 11:15:42;;;;;;;23.87;21.77;;;29.20;93.70;;;;;;4952542;29;20822;-74
2021/06/04 11:18:14;;;;;;;29.87;27.17;;;28.90;94.80;;;;;;4948881;28;20479;-71
2021/06/04 11:20:48;;;;;;;28.70;26.00;;;28.50;95.00;;;;;;4946104;28;20524;-73
2021/06/04 11:23:27;;;;;;;24.47;22.33;;;28.30;95.80;;;;;;4948633;28;20541;-71
2021/06/04 11:25:57;;;;;;;25.77;23.30;;;28.50;96.50;;;;;;4954641;28;20458;-71
2021/06/04 11:28:37;;;;;;;25.63;23.53;;;28.80;95.60;;;;;;4941818;29;20466;-71
2021/06/04 11:31:10;;;;;;;24.20;21.67;;;28.90;94.60;;;;;;4953305;29;20875;-70
2021/06/04 11:33:38;;;;;;;22.57;20.57;;;28.90;94.90;;;;;;4951119;28;20482;-70
2021/06/04 11:36:14;;;;;;;18.30;16.70;;;29.10;94.00;;;;;;4948444;28;20755;-71
2021/06/04 11:38:45;;;;;;;24.73;22.17;;;29.20;93.70;;;;;;4956442;28;20470;-71
2021/06/04 11:41:18;;;;;;;25.77;23.57;;;29.30;93.00;;;;;;4958302;28;20486;-70
2021/06/04 11:43:48;;;;;;;24.93;22.73;;;28.90;93.10;;;;;;4956077;29;20803;-70
2021/06/04 11:46:35;;;;;;;22.90;20.57;;;29.10;93.70;;;;;;4954126;28;20479;-70
2021/06/04 11:49:09;;;;;;;25.27;22.97;;;29.10;93.90;;;;;;4954980;29;20473;-70
2021/06/04 11:51:51;;;;;;;26.43;24.13;;;29.20;93.70;;;;;;4949762;29;20860;-69
2021/06/04 11:54:41;;;;;;;24.60;22.40;;;29.10;94.20;;;;;;4953254;28;20465;-71
2021/06/04 11:57:13;;;;;;;23.90;21.93;;;29.10;93.90;;;;;;4958960;28;20513;-71
2021/06/04 11:59:55;;;;;;;26.03;23.73;;;29.40;93.70;;;;;;4958054;28;20454;-71
2021/06/04 12:02:35;;;;;;;23.40;21.30;;;29.30;93.10;;;;;;4957036;29;20458;-70
2021/06/04 12:05:13;;;;;;;23.87;21.67;;;28.80;93.30;;;;;;4964532;28;20995;-71
2021/06/04 12:07:42;;;;;;;24.30;22.00;;;28.80;93.80;;;;;;4957916;28;20478;-70
2021/06/04 12:10:10;;;;;;;23.60;21.60;;;29.00;93.60;;;;;;4956875;29;20466;-69
2021/06/04 12:12:56;;;;;;;24.67;22.57;;;29.20;93.50;;;;;;4957881;29;20520;-70
2021/06/04 12:15:45;;;;;;;23.73;21.63;;;29.40;92.60;;;;;;4956957;29;20758;-70
2021/06/04 12:18:55;;;;;;;19.87;18.13;;;29.50;92.00;;;;;;4958837;28;20506;-70
2021/06/04 12:21:58;;;;;;;20.20;18.20;;;29.40;91.70;;;;;;4959272;29;20761;-69
2021/06/04 12:25:02;;;;;;;22.57;20.33;;;29.10;92.20;;;;;;4951455;29;20533;-70
2021/06/04 12:28:02;;;;;;;22.90;20.80;;;29.20;92.30;;;;;;4957002;28;20472;-70
2021/06/04 12:30:59;;;;;;;24.50;21.93;;;28.90;91.50;;;;;;4954880;29;20450;-70
2021/06/04 12:34:05;;;;;;;24.30;22.10;;;29.40;91.90;;;;;;4952531;29;20742;-71
2021/06/04 12:36:53;;;;;;;29.33;26.80;;;29.70;91.60;;;;;;4947489;29;20478;-71
2021/06/04 12:39:36;;;;;;;27.10;24.80;;;29.70;90.90;;;;;;4956245;29;20458;-72
2021/06/04 12:42:07;;;;;;;23.43;21.23;;;29.60;90.80;;;;;;4957172;29;20497;-70
2021/06/04 12:44:35;;;;;;;16.57;15.07;;;29.70;90.80;;;;;;4957415;29;20450;-71
2021/06/04 12:47:04;;;;;;;35.20;32.00;;;30.00;91.10;;;;;;4956237;28;20489;-69
2021/06/04 12:49:31;;;;;;;36.13;32.97;;;30.20;91.90;;;;;;4957416;28;20522;-72
2021/06/04 12:51:59;;;;;;;24.97;22.50;;;30.40;91.30;;;;;;4957827;28;20439;-73
2021/06/04 12:54:29;;;;;;;28.80;26.30;;;30.60;91.60;;;;;;4954782;29;20469;-71
2021/06/04 12:56:58;;;;;;;32.23;29.13;;;30.70;90.70;;;;;;4957410;28;20553;-70
2021/06/04 12:59:27;;;;;;;32.47;29.50;;;30.80;90.30;;;;;;4951875;29;20450;-69
2021/06/04 13:01:59;;;;;;;29.20;26.37;;;30.60;90.30;;;;;;4955531;28;20577;-74
2021/06/04 13:04:29;;;;;;;30.80;28.30;;;30.30;90.70;;;;;;4945465;28;20440;-73
2021/06/04 13:06:58;;;;;;;30.63;27.60;;;30.00;90.90;;;;;;4945998;28;20510;-73
2021/06/04 13:09:31;;;;;;;27.03;24.47;;;29.80;91.50;;;;;;4953019;28;20549;-70